createdAt,value
2023-02-28T00:00:49.388Z,18.95
2023-02-28T00:05:50.799Z,15.40
2023-02-28T00:10:52.223Z,15.35
2023-02-28T00:16:05.602Z,15.05
2023-02-28T00:21:07.664Z,16.35
2023-02-28T00:26:09.120Z,13.65
2023-02-28T00:31:10.610Z,13.00
2023-02-28T00:36:12.808Z,13.60
2023-02-28T00:41:14.287Z,11.15
2023-02-28T00:46:15.772Z,12.48
2023-02-28T00:51:17.229Z,13.02
2023-02-28T00:56:18.736Z,12.13
2023-02-28T01:01:20.208Z,12.13
2023-02-28T01:06:21.626Z,13.13
2023-02-28T01:11:24.187Z,12.82
2023-02-28T01:16:26.004Z,16.65
2023-02-28T01:21:27.863Z,15.27
2023-02-28T01:26:30.172Z,16.15
2023-02-28T01:31:31.913Z,14.88
2023-02-28T01:36:33.558Z,15.10
2023-02-28T01:41:35.952Z,15.38
2023-02-28T01:46:37.474Z,14.10
2023-02-28T01:51:51.377Z,13.85
2023-02-28T01:56:59.615Z,15.15
2023-02-28T02:02:02.303Z,14.00
2023-02-28T02:07:04.609Z,12.77
2023-02-28T02:12:27.801Z,12.60
2023-02-28T02:17:33.250Z,13.20
2023-02-28T02:22:59.064Z,14.07
2023-02-28T02:28:37.736Z,15.38
2023-02-28T02:34:20.328Z,14.87
2023-02-28T02:39:47.147Z,15.38
2023-02-28T02:44:55.064Z,14.30
2023-02-28T02:49:59.500Z,14.88
2023-02-28T02:55:03.124Z,14.65
2023-02-28T03:00:09.452Z,14.27
2023-02-28T03:05:24.832Z,14.23
2023-02-28T03:10:30.972Z,14.25
2023-02-28T03:15:49.812Z,14.55
2023-02-28T03:21:04.568Z,15.05
2023-02-28T03:26:19.832Z,15.75
2023-02-28T03:31:34.254Z,15.77
2023-02-28T03:36:45.343Z,14.02
2023-02-28T03:41:53.133Z,14.45
2023-02-28T03:47:01.856Z,14.73
2023-02-28T03:52:07.658Z,14.23
2023-02-28T03:57:23.987Z,14.10
2023-02-28T04:02:25.511Z,14.90
2023-02-28T04:07:30.602Z,14.43
2023-02-28T04:12:32.048Z,14.75
2023-02-28T04:17:33.473Z,14.30
2023-02-28T04:22:34.886Z,14.10
2023-02-28T04:27:36.367Z,14.27
2023-02-28T04:32:37.847Z,15.90
2023-02-28T04:37:39.278Z,15.30
2023-02-28T04:42:40.687Z,14.40
2023-02-28T04:47:42.103Z,14.57
2023-02-28T04:52:43.562Z,14.90
2023-02-28T04:57:45.078Z,14.40
2023-02-28T05:02:46.519Z,14.13
2023-02-28T05:07:47.928Z,14.23
2023-02-28T05:12:49.447Z,14.18
2023-02-28T05:17:51.037Z,13.98
2023-02-28T05:22:53.634Z,14.45
2023-02-28T05:27:55.090Z,12.68
2023-02-28T05:32:56.738Z,12.40
2023-02-28T05:37:58.333Z,12.77
2023-02-28T05:42:59.788Z,13.23
2023-02-28T05:48:01.420Z,12.75
2023-02-28T05:53:03.087Z,14.07
2023-02-28T05:58:04.962Z,13.48
2023-02-28T06:03:06.480Z,13.63
2023-02-28T06:08:08.266Z,12.95
2023-02-28T06:13:09.755Z,12.90
2023-02-28T06:18:11.198Z,13.73
2023-02-28T06:23:12.621Z,14.23
2023-02-28T06:28:14.101Z,15.55
2023-02-28T06:33:15.561Z,15.23
2023-02-28T06:38:17.015Z,15.20
2023-02-28T06:43:18.433Z,14.23
2023-02-28T06:48:20.001Z,15.95
2023-02-28T06:53:21.442Z,18.27
2023-02-28T06:58:22.894Z,15.65
2023-02-28T07:03:24.783Z,15.23
2023-02-28T07:08:27.770Z,13.57
2023-02-28T07:13:29.290Z,13.90
2023-02-28T07:18:31.035Z,13.13
2023-02-28T07:23:32.498Z,14.32
2023-02-28T07:28:34.353Z,11.88
2023-02-28T07:33:36.586Z,11.80
2023-02-28T07:38:38.488Z,11.35
2023-02-28T07:43:39.948Z,10.68
2023-02-28T07:48:42.082Z,11.15
2023-02-28T07:53:43.564Z,10.50
2023-02-28T07:58:44.988Z,12.07
2023-02-28T08:03:46.428Z,10.07
2023-02-28T08:08:48.385Z,9.65
2023-02-28T08:13:49.871Z,9.93
2023-02-28T08:18:53.016Z,8.43
2023-02-28T08:23:54.895Z,8.57
2023-02-28T08:28:57.494Z,9.82
2023-02-28T08:34:00.329Z,9.98
2023-02-28T08:39:02.271Z,10.25
2023-02-28T08:44:04.068Z,10.45
2023-02-28T08:49:05.555Z,10.88
2023-02-28T08:54:07.008Z,10.48
2023-02-28T08:59:10.223Z,7.97
2023-02-28T09:04:13.783Z,6.05
2023-02-28T09:09:17.285Z,4.78
2023-02-28T09:14:18.756Z,5.55
2023-02-28T09:19:20.237Z,6.30
2023-02-28T09:24:21.974Z,5.60
2023-02-28T09:29:23.513Z,4.40
2023-02-28T09:34:28.690Z,5.00
2023-02-28T09:39:30.148Z,5.43
2023-02-28T09:44:31.614Z,5.00
2023-02-28T09:49:40.298Z,5.25
2023-02-28T09:54:41.836Z,5.00
2023-02-28T10:00:01.697Z,5.55
2023-02-28T10:05:12.575Z,5.72
2023-02-28T10:10:43.544Z,6.05
2023-02-28T10:15:47.396Z,6.30
2023-02-28T10:20:50.444Z,6.70
2023-02-28T10:26:11.401Z,5.70
2023-02-28T10:31:18.472Z,7.05
2023-02-28T10:36:22.117Z,7.10
2023-02-28T10:41:37.399Z,6.35
2023-02-28T10:46:41.617Z,6.25
2023-02-28T10:51:43.160Z,6.45
2023-02-28T10:56:44.829Z,7.47
2023-02-28T11:01:49.985Z,7.97
2023-02-28T11:07:27.852Z,7.82
2023-02-28T11:12:47.246Z,7.00
2023-02-28T11:17:58.754Z,7.75
2023-02-28T11:23:03.334Z,7.80
2023-02-28T11:28:07.651Z,7.63
2023-02-28T11:33:21.761Z,8.48
2023-02-28T11:38:23.198Z,7.88
2023-02-28T11:43:46.947Z,8.43
2023-02-28T11:49:20.619Z,6.68
2023-02-28T11:54:30.111Z,7.45
2023-02-28T12:05:11.697Z,7.77
2023-02-28T12:10:22.623Z,7.43
2023-02-28T12:15:32.923Z,7.05
2023-02-28T12:20:42.129Z,7.03
2023-02-28T12:25:49.189Z,6.97
2023-02-28T12:30:58.505Z,8.15
2023-02-28T12:36:05.969Z,7.90
2023-02-28T12:41:17.672Z,7.85
2023-02-28T12:46:25.178Z,9.38
2023-02-28T12:51:28.387Z,8.98
2023-02-28T12:57:07.552Z,8.02
2023-02-28T13:02:41.447Z,8.50
2023-02-28T13:08:08.823Z,9.70
2023-02-28T13:13:17.573Z,9.95
2023-02-28T13:18:31.527Z,9.88
2023-02-28T13:23:44.923Z,9.82
2023-02-28T13:28:54.605Z,10.15
2023-02-28T13:33:58.025Z,10.63
2023-02-28T13:39:02.892Z,9.70
2023-02-28T13:44:07.238Z,9.40
2023-02-28T13:49:27.453Z,10.82
2023-02-28T13:54:36.737Z,9.68
2023-02-28T14:00:13.145Z,9.30
2023-02-28T14:05:18.008Z,11.45
2023-02-28T14:10:43.850Z,10.02
2023-02-28T14:16:00.524Z,9.48
2023-02-28T14:21:15.235Z,10.52
2023-02-28T14:26:52.053Z,11.77
2023-02-28T14:31:59.372Z,11.07
2023-02-28T14:37:03.319Z,11.77
2023-02-28T14:42:25.030Z,12.63
2023-02-28T14:47:31.956Z,12.05
2023-02-28T14:52:34.035Z,12.35
2023-02-28T14:57:41.523Z,12.93
2023-02-28T15:02:43.916Z,11.98
2023-02-28T15:07:46.664Z,15.95
2023-02-28T15:13:01.188Z,12.35
2023-02-28T15:18:06.594Z,11.60
2023-02-28T15:23:08.512Z,12.50
2023-02-28T15:28:16.950Z,10.95
2023-02-28T15:33:20.773Z,12.20
2023-02-28T15:38:22.184Z,12.23
2023-02-28T15:43:34.915Z,11.60
2023-02-28T15:48:54.273Z,11.93
2023-02-28T15:53:59.747Z,10.52
2023-02-28T15:59:04.308Z,13.50
2023-02-28T16:04:19.143Z,12.60
2023-02-28T16:09:20.626Z,8.40
2023-02-28T16:14:26.004Z,11.52
2023-02-28T16:19:27.423Z,11.00
2023-02-28T16:24:29.049Z,8.45
2023-02-28T16:29:34.226Z,9.10
2023-02-28T16:34:35.671Z,10.13
2023-02-28T16:39:37.158Z,9.98
2023-02-28T16:44:38.611Z,10.90
2023-02-28T16:49:42.924Z,10.45
2023-02-28T16:54:44.396Z,11.95
2023-02-28T16:59:45.913Z,11.65
2023-02-28T17:04:47.497Z,14.05
2023-02-28T17:09:48.938Z,15.60
2023-02-28T17:14:50.362Z,12.82
2023-02-28T17:19:51.785Z,14.32
2023-02-28T17:24:56.661Z,14.30
2023-02-28T17:29:58.433Z,15.73
2023-02-28T17:34:59.861Z,14.95
2023-02-28T17:40:01.383Z,16.63
2023-02-28T17:45:03.020Z,16.35
2023-02-28T17:50:04.992Z,16.63
2023-02-28T17:55:06.779Z,17.85
2023-02-28T18:00:09.694Z,18.17
2023-02-28T18:05:12.222Z,20.15
2023-02-28T18:10:20.333Z,22.50
2023-02-28T18:15:22.756Z,19.27
2023-02-28T18:20:24.264Z,19.80
2023-02-28T18:25:27.491Z,21.40
2023-02-28T18:30:31.677Z,20.92
2023-02-28T18:35:36.067Z,21.35
2023-02-28T18:40:38.101Z,23.42
2023-02-28T18:45:39.620Z,20.85
2023-02-28T18:50:44.890Z,20.45
2023-02-28T18:55:46.385Z,22.13
2023-02-28T19:00:48.074Z,24.20
2023-02-28T19:05:50.738Z,25.67
2023-02-28T19:10:52.486Z,21.35
2023-02-28T19:16:02.179Z,22.48
2023-02-28T19:21:06.215Z,24.10
2023-02-28T19:26:20.252Z,22.95
2023-02-28T19:31:26.200Z,23.30
2023-02-28T19:36:28.490Z,20.52
2023-02-28T19:41:30.193Z,21.95
2023-02-28T19:46:31.776Z,21.38
2023-02-28T19:51:34.326Z,21.40
2023-02-28T19:56:35.809Z,22.30
2023-02-28T20:01:38.471Z,21.80
2023-02-28T20:06:40.067Z,22.33
2023-02-28T20:11:41.490Z,22.13
2023-02-28T20:16:43.843Z,22.20
2023-02-28T20:21:45.398Z,22.15
2023-02-28T20:26:46.824Z,23.02
2023-02-28T20:31:48.365Z,21.90
2023-02-28T20:36:49.900Z,22.80
2023-02-28T20:41:51.437Z,23.70
2023-02-28T20:46:52.852Z,23.65
2023-02-28T20:51:54.276Z,25.13
2023-02-28T20:56:55.911Z,25.05
2023-02-28T21:01:57.424Z,24.67
2023-02-28T21:06:59.016Z,24.80
2023-02-28T21:12:01.532Z,26.10
2023-02-28T21:17:03.083Z,25.92
2023-02-28T21:22:04.595Z,26.65
2023-02-28T21:27:06.125Z,25.88
2023-02-28T21:32:07.628Z,25.40
2023-02-28T21:37:10.886Z,27.83
2023-02-28T21:42:13.070Z,29.52
2023-02-28T21:47:14.537Z,30.67
2023-02-28T21:52:15.975Z,28.50
2023-02-28T21:57:17.508Z,29.83
2023-02-28T22:02:19.100Z,28.08
2023-02-28T22:07:20.606Z,28.35
2023-02-28T22:12:22.030Z,29.40
2023-02-28T22:17:23.514Z,27.88
2023-02-28T22:22:26.196Z,29.45
2023-02-28T22:27:27.682Z,27.73
2023-02-28T22:32:29.333Z,28.38
2023-02-28T22:37:30.846Z,28.17
2023-02-28T22:42:34.425Z,28.80
2023-02-28T22:47:35.885Z,34.97
2023-02-28T22:52:40.454Z,42.85
2023-02-28T22:57:41.933Z,50.90
2023-02-28T23:02:44.305Z,45.22
2023-02-28T23:07:46.039Z,38.55
2023-02-28T23:12:53.384Z,44.78
2023-02-28T23:17:54.881Z,48.00
2023-02-28T23:22:56.359Z,31.55
2023-02-28T23:27:57.828Z,32.55
2023-02-28T23:32:59.303Z,31.48
2023-02-28T23:38:00.871Z,29.90
2023-02-28T23:43:02.283Z,29.85
2023-02-28T23:48:04.511Z,29.20
2023-02-28T23:53:05.965Z,30.15
2023-02-28T23:58:07.392Z,30.05
